sensor_id;sensor_type;location;lat;lon;timestamp;P1;durP1;ratioP1;P2;durP2;ratioP2
80494;SDS011;69819;48.798;11.770;2024-01-30T00:01:50;6.22;;;4.55;;
80494;SDS011;69819;48.798;11.770;2024-01-30T00:04:16;5.97;;;4.20;;
80494;SDS011;69819;48.798;11.770;2024-01-30T00:06:42;7.72;;;4.95;;
80494;SDS011;69819;48.798;11.770;2024-01-30T00:09:11;6.13;;;4.35;;
80494;SDS011;69819;48.798;11.770;2024-01-30T00:11:37;7.38;;;5.30;;
80494;SDS011;69819;48.798;11.770;2024-01-30T00:14:03;6.80;;;4.60;;
80494;SDS011;69819;48.798;11.770;2024-01-30T00:16:30;6.20;;;4.28;;
80494;SDS011;69819;48.798;11.770;2024-01-30T00:18:56;6.35;;;4.53;;
80494;SDS011;69819;48.798;11.770;2024-01-30T00:21:22;6.00;;;4.45;;
80494;SDS011;69819;48.798;11.770;2024-01-30T00:23:48;6.78;;;4.13;;
80494;SDS011;69819;48.798;11.770;2024-01-30T00:26:14;5.15;;;4.20;;
80494;SDS011;69819;48.798;11.770;2024-01-30T00:28:41;6.35;;;4.47;;
80494;SDS011;69819;48.798;11.770;2024-01-30T00:31:07;7.55;;;4.22;;
80494;SDS011;69819;48.798;11.770;2024-01-30T00:33:37;5.43;;;4.15;;
80494;SDS011;69819;48.798;11.770;2024-01-30T00:36:04;5.65;;;4.20;;
80494;SDS011;69819;48.798;11.770;2024-01-30T00:38:31;6.57;;;4.30;;
80494;SDS011;69819;48.798;11.770;2024-01-30T00:40:57;4.90;;;3.80;;
80494;SDS011;69819;48.798;11.770;2024-01-30T00:43:23;5.50;;;3.97;;
80494;SDS011;69819;48.798;11.770;2024-01-30T00:45:52;6.60;;;4.25;;
80494;SDS011;69819;48.798;11.770;2024-01-30T00:48:18;5.63;;;4.13;;
80494;SDS011;69819;48.798;11.770;2024-01-30T00:50:44;6.90;;;4.15;;
80494;SDS011;69819;48.798;11.770;2024-01-30T00:53:10;7.30;;;4.40;;
80494;SDS011;69819;48.798;11.770;2024-01-30T00:55:36;6.47;;;4.03;;
80494;SDS011;69819;48.798;11.770;2024-01-30T00:58:01;6.20;;;4.38;;
80494;SDS011;69819;48.798;11.770;2024-01-30T01:00:28;5.30;;;4.15;;
80494;SDS011;69819;48.798;11.770;2024-01-30T01:02:57;5.70;;;4.35;;
80494;SDS011;69819;48.798;11.770;2024-01-30T01:05:24;4.30;;;3.90;;
80494;SDS011;69819;48.798;11.770;2024-01-30T01:07:50;7.18;;;4.03;;
80494;SDS011;69819;48.798;11.770;2024-01-30T01:10:16;6.95;;;4.18;;
80494;SDS011;69819;48.798;11.770;2024-01-30T01:12:43;5.25;;;4.07;;
80494;SDS011;69819;48.798;11.770;2024-01-30T01:15:09;6.28;;;4.35;;
80494;SDS011;69819;48.798;11.770;2024-01-30T01:17:39;6.05;;;4.03;;
80494;SDS011;69819;48.798;11.770;2024-01-30T01:20:06;7.55;;;4.38;;
80494;SDS011;69819;48.798;11.770;2024-01-30T01:22:33;4.72;;;3.92;;
80494;SDS011;69819;48.798;11.770;2024-01-30T01:24:59;5.57;;;4.22;;
80494;SDS011;69819;48.798;11.770;2024-01-30T01:27:26;8.35;;;4.40;;
80494;SDS011;69819;48.798;11.770;2024-01-30T01:29:52;7.82;;;4.30;;
80494;SDS011;69819;48.798;11.770;2024-01-30T01:32:18;5.60;;;4.03;;
80494;SDS011;69819;48.798;11.770;2024-01-30T01:34:45;6.03;;;4.22;;
80494;SDS011;69819;48.798;11.770;2024-01-30T01:37:11;8.43;;;4.28;;
80494;SDS011;69819;48.798;11.770;2024-01-30T01:39:37;8.00;;;4.43;;
80494;SDS011;69819;48.798;11.770;2024-01-30T01:42:03;5.55;;;4.15;;
80494;SDS011;69819;48.798;11.770;2024-01-30T01:44:29;6.43;;;4.88;;
80494;SDS011;69819;48.798;11.770;2024-01-30T01:46:55;6.82;;;4.70;;
80494;SDS011;69819;48.798;11.770;2024-01-30T01:49:23;6.78;;;4.45;;
80494;SDS011;69819;48.798;11.770;2024-01-30T01:51:52;5.85;;;4.10;;
80494;SDS011;69819;48.798;11.770;2024-01-30T01:54:21;5.72;;;4.05;;
80494;SDS011;69819;48.798;11.770;2024-01-30T01:56:50;4.68;;;3.92;;
80494;SDS011;69819;48.798;11.770;2024-01-30T01:59:18;6.50;;;4.50;;
80494;SDS011;69819;48.798;11.770;2024-01-30T02:01:46;6.22;;;4.32;;
80494;SDS011;69819;48.798;11.770;2024-01-30T02:04:14;8.05;;;4.78;;
80494;SDS011;69819;48.798;11.770;2024-01-30T02:06:41;6.07;;;4.50;;
80494;SDS011;69819;48.798;11.770;2024-01-30T02:09:08;5.85;;;4.18;;
80494;SDS011;69819;48.798;11.770;2024-01-30T02:11:34;5.68;;;3.85;;
80494;SDS011;69819;48.798;11.770;2024-01-30T02:14:03;6.47;;;4.10;;
80494;SDS011;69819;48.798;11.770;2024-01-30T02:16:30;6.88;;;4.43;;
80494;SDS011;69819;48.798;11.770;2024-01-30T02:18:59;6.05;;;4.03;;
80494;SDS011;69819;48.798;11.770;2024-01-30T02:21:24;5.95;;;3.88;;
80494;SDS011;69819;48.798;11.770;2024-01-30T02:23:50;5.88;;;3.92;;
80494;SDS011;69819;48.798;11.770;2024-01-30T02:26:18;5.35;;;4.00;;
80494;SDS011;69819;48.798;11.770;2024-01-30T02:28:44;6.50;;;4.65;;
80494;SDS011;69819;48.798;11.770;2024-01-30T02:31:09;5.88;;;4.30;;
80494;SDS011;69819;48.798;11.770;2024-01-30T02:33:35;6.28;;;4.15;;
80494;SDS011;69819;48.798;11.770;2024-01-30T02:36:01;5.72;;;4.10;;
80494;SDS011;69819;48.798;11.770;2024-01-30T02:38:27;7.57;;;4.18;;
80494;SDS011;69819;48.798;11.770;2024-01-30T02:40:53;6.30;;;4.60;;
80494;SDS011;69819;48.798;11.770;2024-01-30T02:43:20;5.65;;;4.40;;
80494;SDS011;69819;48.798;11.770;2024-01-30T02:45:46;6.78;;;4.28;;
80494;SDS011;69819;48.798;11.770;2024-01-30T02:48:11;6.22;;;4.05;;
80494;SDS011;69819;48.798;11.770;2024-01-30T02:50:37;6.28;;;4.03;;
80494;SDS011;69819;48.798;11.770;2024-01-30T02:53:03;5.90;;;4.07;;
80494;SDS011;69819;48.798;11.770;2024-01-30T02:55:29;5.38;;;3.80;;
80494;SDS011;69819;48.798;11.770;2024-01-30T02:57:54;5.78;;;3.60;;
80494;SDS011;69819;48.798;11.770;2024-01-30T03:00:20;6.60;;;3.88;;
80494;SDS011;69819;48.798;11.770;2024-01-30T03:02:46;4.93;;;3.80;;
80494;SDS011;69819;48.798;11.770;2024-01-30T03:05:12;5.80;;;3.85;;
80494;SDS011;69819;48.798;11.770;2024-01-30T03:07:38;6.47;;;4.10;;
80494;SDS011;69819;48.798;11.770;2024-01-30T03:10:04;5.28;;;3.95;;
80494;SDS011;69819;48.798;11.770;2024-01-30T03:12:31;7.55;;;4.57;;
80494;SDS011;69819;48.798;11.770;2024-01-30T03:14:57;6.00;;;4.22;;
80494;SDS011;69819;48.798;11.770;2024-01-30T03:17:23;4.45;;;3.65;;
80494;SDS011;69819;48.798;11.770;2024-01-30T03:19:49;5.45;;;3.78;;
80494;SDS011;69819;48.798;11.770;2024-01-30T03:22:15;6.05;;;4.10;;
80494;SDS011;69819;48.798;11.770;2024-01-30T03:24:41;5.78;;;4.43;;
80494;SDS011;69819;48.798;11.770;2024-01-30T03:27:08;3.83;;;3.50;;
80494;SDS011;69819;48.798;11.770;2024-01-30T03:29:34;5.25;;;3.88;;
80494;SDS011;69819;48.798;11.770;2024-01-30T03:32:00;4.60;;;3.88;;
80494;SDS011;69819;48.798;11.770;2024-01-30T03:34:25;5.13;;;3.78;;
80494;SDS011;69819;48.798;11.770;2024-01-30T03:36:51;8.85;;;4.30;;
80494;SDS011;69819;48.798;11.770;2024-01-30T03:39:17;4.85;;;3.95;;
80494;SDS011;69819;48.798;11.770;2024-01-30T03:41:43;6.00;;;4.50;;
80494;SDS011;69819;48.798;11.770;2024-01-30T03:44:09;5.45;;;3.92;;
80494;SDS011;69819;48.798;11.770;2024-01-30T03:46:35;7.43;;;4.78;;
80494;SDS011;69819;48.798;11.770;2024-01-30T03:49:01;6.65;;;4.78;;
80494;SDS011;69819;48.798;11.770;2024-01-30T03:51:27;6.43;;;4.35;;
80494;SDS011;69819;48.798;11.770;2024-01-30T03:53:53;6.88;;;5.07;;
80494;SDS011;69819;48.798;11.770;2024-01-30T03:56:18;5.72;;;3.90;;
80494;SDS011;69819;48.798;11.770;2024-01-30T03:58:44;6.82;;;4.35;;
80494;SDS011;69819;48.798;11.770;2024-01-30T04:01:13;7.13;;;4.45;;
80494;SDS011;69819;48.798;11.770;2024-01-30T04:03:40;7.25;;;4.80;;
80494;SDS011;69819;48.798;11.770;2024-01-30T04:06:06;7.53;;;4.63;;
80494;SDS011;69819;48.798;11.770;2024-01-30T04:08:33;6.60;;;4.75;;
80494;SDS011;69819;48.798;11.770;2024-01-30T04:11:02;8.30;;;4.57;;
80494;SDS011;69819;48.798;11.770;2024-01-30T04:13:30;6.38;;;4.28;;
80494;SDS011;69819;48.798;11.770;2024-01-30T04:16:00;6.70;;;4.82;;
80494;SDS011;69819;48.798;11.770;2024-01-30T04:18:27;8.82;;;5.03;;
80494;SDS011;69819;48.798;11.770;2024-01-30T04:20:54;7.25;;;4.95;;
80494;SDS011;69819;48.798;11.770;2024-01-30T04:23:20;7.72;;;5.07;;
80494;SDS011;69819;48.798;11.770;2024-01-30T04:25:46;8.00;;;5.35;;
80494;SDS011;69819;48.798;11.770;2024-01-30T04:28:12;5.90;;;4.43;;
80494;SDS011;69819;48.798;11.770;2024-01-30T04:30:38;8.05;;;5.20;;
80494;SDS011;69819;48.798;11.770;2024-01-30T04:33:04;8.13;;;4.97;;
80494;SDS011;69819;48.798;11.770;2024-01-30T04:35:30;7.63;;;5.32;;
80494;SDS011;69819;48.798;11.770;2024-01-30T04:37:56;7.97;;;5.20;;
80494;SDS011;69819;48.798;11.770;2024-01-30T04:40:21;5.78;;;4.80;;
80494;SDS011;69819;48.798;11.770;2024-01-30T04:42:47;7.53;;;5.13;;
80494;SDS011;69819;48.798;11.770;2024-01-30T04:45:13;6.57;;;4.72;;
80494;SDS011;69819;48.798;11.770;2024-01-30T04:47:39;8.05;;;5.38;;
80494;SDS011;69819;48.798;11.770;2024-01-30T04:50:08;7.68;;;5.22;;
80494;SDS011;69819;48.798;11.770;2024-01-30T04:52:34;6.85;;;4.88;;
80494;SDS011;69819;48.798;11.770;2024-01-30T04:55:00;8.50;;;4.97;;
80494;SDS011;69819;48.798;11.770;2024-01-30T04:57:27;6.90;;;5.07;;
80494;SDS011;69819;48.798;11.770;2024-01-30T04:59:52;7.28;;;5.18;;
80494;SDS011;69819;48.798;11.770;2024-01-30T05:02:18;9.13;;;5.13;;
80494;SDS011;69819;48.798;11.770;2024-01-30T05:04:44;7.97;;;5.47;;
80494;SDS011;69819;48.798;11.770;2024-01-30T05:07:10;8.13;;;5.53;;
80494;SDS011;69819;48.798;11.770;2024-01-30T05:09:36;6.97;;;4.95;;
80494;SDS011;69819;48.798;11.770;2024-01-30T05:12:02;6.95;;;5.03;;
80494;SDS011;69819;48.798;11.770;2024-01-30T05:14:28;7.15;;;4.75;;
80494;SDS011;69819;48.798;11.770;2024-01-30T05:16:54;7.35;;;5.10;;
80494;SDS011;69819;48.798;11.770;2024-01-30T05:19:19;9.50;;;5.72;;
80494;SDS011;69819;48.798;11.770;2024-01-30T05:21:47;8.27;;;5.47;;
80494;SDS011;69819;48.798;11.770;2024-01-30T05:24:14;5.97;;;4.68;;
80494;SDS011;69819;48.798;11.770;2024-01-30T05:26:40;8.30;;;5.30;;
80494;SDS011;69819;48.798;11.770;2024-01-30T05:29:06;8.52;;;5.72;;
80494;SDS011;69819;48.798;11.770;2024-01-30T05:31:33;7.03;;;5.43;;
80494;SDS011;69819;48.798;11.770;2024-01-30T05:33:59;7.85;;;5.40;;
80494;SDS011;69819;48.798;11.770;2024-01-30T05:36:25;6.30;;;4.78;;
80494;SDS011;69819;48.798;11.770;2024-01-30T05:38:51;9.73;;;5.70;;
80494;SDS011;69819;48.798;11.770;2024-01-30T05:41:17;6.22;;;4.57;;
80494;SDS011;69819;48.798;11.770;2024-01-30T05:43:43;7.07;;;4.80;;
80494;SDS011;69819;48.798;11.770;2024-01-30T05:46:09;6.25;;;4.25;;
80494;SDS011;69819;48.798;11.770;2024-01-30T05:48:34;7.05;;;4.72;;
80494;SDS011;69819;48.798;11.770;2024-01-30T05:51:01;6.10;;;4.57;;
80494;SDS011;69819;48.798;11.770;2024-01-30T05:53:28;6.70;;;4.47;;
80494;SDS011;69819;48.798;11.770;2024-01-30T05:55:54;6.68;;;4.70;;
80494;SDS011;69819;48.798;11.770;2024-01-30T05:58:20;6.22;;;4.50;;
80494;SDS011;69819;48.798;11.770;2024-01-30T06:00:46;6.65;;;4.55;;
80494;SDS011;69819;48.798;11.770;2024-01-30T06:03:12;7.00;;;4.93;;
80494;SDS011;69819;48.798;11.770;2024-01-30T06:05:38;6.75;;;4.70;;
80494;SDS011;69819;48.798;11.770;2024-01-30T06:08:04;7.18;;;5.18;;
80494;SDS011;69819;48.798;11.770;2024-01-30T06:10:30;7.20;;;4.90;;
80494;SDS011;69819;48.798;11.770;2024-01-30T06:12:56;6.55;;;4.75;;
80494;SDS011;69819;48.798;11.770;2024-01-30T06:15:21;7.45;;;5.03;;
80494;SDS011;69819;48.798;11.770;2024-01-30T06:17:47;11.35;;;5.75;;
80494;SDS011;69819;48.798;11.770;2024-01-30T06:20:13;9.35;;;5.63;;
80494;SDS011;69819;48.798;11.770;2024-01-30T06:22:39;8.98;;;5.70;;
80494;SDS011;69819;48.798;11.770;2024-01-30T06:25:05;8.88;;;5.63;;
80494;SDS011;69819;48.798;11.770;2024-01-30T06:27:31;10.73;;;5.75;;
80494;SDS011;69819;48.798;11.770;2024-01-30T06:29:56;7.57;;;5.28;;
80494;SDS011;69819;48.798;11.770;2024-01-30T06:32:22;8.35;;;5.65;;
80494;SDS011;69819;48.798;11.770;2024-01-30T06:34:48;8.07;;;5.78;;
80494;SDS011;69819;48.798;11.770;2024-01-30T06:37:14;8.23;;;5.85;;
80494;SDS011;69819;48.798;11.770;2024-01-30T06:39:39;8.85;;;5.72;;
80494;SDS011;69819;48.798;11.770;2024-01-30T06:42:05;9.40;;;5.90;;
80494;SDS011;69819;48.798;11.770;2024-01-30T06:44:31;9.23;;;6.15;;
80494;SDS011;69819;48.798;11.770;2024-01-30T06:46:57;11.60;;;6.55;;
80494;SDS011;69819;48.798;11.770;2024-01-30T06:49:22;9.80;;;6.10;;
80494;SDS011;69819;48.798;11.770;2024-01-30T06:51:48;9.65;;;6.25;;
80494;SDS011;69819;48.798;11.770;2024-01-30T06:54:14;8.82;;;5.55;;
80494;SDS011;69819;48.798;11.770;2024-01-30T06:56:41;10.52;;;6.55;;
80494;SDS011;69819;48.798;11.770;2024-01-30T06:59:07;8.32;;;5.93;;
80494;SDS011;69819;48.798;11.770;2024-01-30T07:01:33;9.07;;;5.70;;
80494;SDS011;69819;48.798;11.770;2024-01-30T07:03:59;8.70;;;5.88;;
80494;SDS011;69819;48.798;11.770;2024-01-30T07:06:24;8.48;;;5.78;;
80494;SDS011;69819;48.798;11.770;2024-01-30T07:08:50;8.18;;;5.53;;
80494;SDS011;69819;48.798;11.770;2024-01-30T07:11:19;10.35;;;5.53;;
80494;SDS011;69819;48.798;11.770;2024-01-30T07:13:47;8.15;;;5.88;;
80494;SDS011;69819;48.798;11.770;2024-01-30T07:16:14;9.18;;;6.18;;
80494;SDS011;69819;48.798;11.770;2024-01-30T07:18:40;8.18;;;5.90;;
80494;SDS011;69819;48.798;11.770;2024-01-30T07:21:06;8.95;;;6.68;;
80494;SDS011;69819;48.798;11.770;2024-01-30T07:23:31;8.65;;;6.45;;
80494;SDS011;69819;48.798;11.770;2024-01-30T07:25:59;9.73;;;5.80;;
80494;SDS011;69819;48.798;11.770;2024-01-30T07:28:26;8.20;;;6.13;;
80494;SDS011;69819;48.798;11.770;2024-01-30T07:30:51;9.40;;;6.05;;
80494;SDS011;69819;48.798;11.770;2024-01-30T07:33:17;7.78;;;5.95;;
80494;SDS011;69819;48.798;11.770;2024-01-30T07:35:45;8.00;;;5.78;;
80494;SDS011;69819;48.798;11.770;2024-01-30T07:38:11;10.38;;;6.07;;
80494;SDS011;69819;48.798;11.770;2024-01-30T07:40:37;8.85;;;6.07;;
80494;SDS011;69819;48.798;11.770;2024-01-30T07:43:03;8.48;;;6.10;;
80494;SDS011;69819;48.798;11.770;2024-01-30T07:45:29;8.70;;;6.40;;
80494;SDS011;69819;48.798;11.770;2024-01-30T07:47:58;8.52;;;6.03;;
80494;SDS011;69819;48.798;11.770;2024-01-30T07:50:25;10.60;;;7.05;;
80494;SDS011;69819;48.798;11.770;2024-01-30T07:52:51;10.07;;;6.97;;
80494;SDS011;69819;48.798;11.770;2024-01-30T07:55:22;12.15;;;6.50;;
80494;SDS011;69819;48.798;11.770;2024-01-30T07:57:56;11.40;;;7.32;;
80494;SDS011;69819;48.798;11.770;2024-01-30T08:00:22;12.95;;;7.90;;
80494;SDS011;69819;48.798;11.770;2024-01-30T08:02:48;10.93;;;7.82;;
80494;SDS011;69819;48.798;11.770;2024-01-30T08:05:14;9.88;;;6.93;;
80494;SDS011;69819;48.798;11.770;2024-01-30T08:07:43;11.27;;;7.55;;
80494;SDS011;69819;48.798;11.770;2024-01-30T08:10:10;9.80;;;7.20;;
80494;SDS011;69819;48.798;11.770;2024-01-30T08:12:37;11.18;;;8.20;;
80494;SDS011;69819;48.798;11.770;2024-01-30T08:15:04;11.38;;;7.72;;
80494;SDS011;69819;48.798;11.770;2024-01-30T08:17:30;11.57;;;8.23;;
80494;SDS011;69819;48.798;11.770;2024-01-30T08:19:56;10.95;;;7.97;;
80494;SDS011;69819;48.798;11.770;2024-01-30T08:22:22;9.85;;;7.82;;
80494;SDS011;69819;48.798;11.770;2024-01-30T08:24:48;8.57;;;7.03;;
80494;SDS011;69819;48.798;11.770;2024-01-30T08:27:14;12.55;;;8.15;;
80494;SDS011;69819;48.798;11.770;2024-01-30T08:29:39;10.65;;;7.70;;
80494;SDS011;69819;48.798;11.770;2024-01-30T08:32:05;9.68;;;7.18;;
80494;SDS011;69819;48.798;11.770;2024-01-30T08:34:32;11.05;;;7.82;;
80494;SDS011;69819;48.798;11.770;2024-01-30T08:36:58;8.55;;;7.13;;
80494;SDS011;69819;48.798;11.770;2024-01-30T08:39:24;9.10;;;7.22;;
80494;SDS011;69819;48.798;11.770;2024-01-30T08:41:49;9.20;;;6.88;;
80494;SDS011;69819;48.798;11.770;2024-01-30T08:44:15;9.43;;;7.32;;
80494;SDS011;69819;48.798;11.770;2024-01-30T08:46:42;8.52;;;7.22;;
80494;SDS011;69819;48.798;11.770;2024-01-30T08:49:11;8.77;;;6.75;;
80494;SDS011;69819;48.798;11.770;2024-01-30T08:51:39;10.63;;;7.32;;
80494;SDS011;69819;48.798;11.770;2024-01-30T08:54:05;8.48;;;6.85;;
80494;SDS011;69819;48.798;11.770;2024-01-30T08:56:30;10.35;;;7.25;;
80494;SDS011;69819;48.798;11.770;2024-01-30T08:58:56;12.30;;;8.18;;
80494;SDS011;69819;48.798;11.770;2024-01-30T09:01:22;10.82;;;7.50;;
80494;SDS011;69819;48.798;11.770;2024-01-30T09:03:48;11.35;;;7.40;;
80494;SDS011;69819;48.798;11.770;2024-01-30T09:06:14;8.65;;;7.40;;
80494;SDS011;69819;48.798;11.770;2024-01-30T09:08:39;10.93;;;7.60;;
80494;SDS011;69819;48.798;11.770;2024-01-30T09:11:11;9.65;;;7.15;;
80494;SDS011;69819;48.798;11.770;2024-01-30T09:13:39;10.35;;;8.02;;
80494;SDS011;69819;48.798;11.770;2024-01-30T09:16:05;9.20;;;7.82;;
80494;SDS011;69819;48.798;11.770;2024-01-30T09:18:32;9.55;;;7.57;;
80494;SDS011;69819;48.798;11.770;2024-01-30T09:20:58;10.90;;;8.30;;
80494;SDS011;69819;48.798;11.770;2024-01-30T09:23:24;11.98;;;8.45;;
80494;SDS011;69819;48.798;11.770;2024-01-30T09:25:53;11.10;;;7.93;;
80494;SDS011;69819;48.798;11.770;2024-01-30T09:28:19;10.30;;;8.05;;
80494;SDS011;69819;48.798;11.770;2024-01-30T09:30:45;10.57;;;8.23;;
80494;SDS011;69819;48.798;11.770;2024-01-30T09:33:11;10.07;;;7.57;;
80494;SDS011;69819;48.798;11.770;2024-01-30T09:35:36;10.02;;;8.00;;
80494;SDS011;69819;48.798;11.770;2024-01-30T09:38:02;10.77;;;7.93;;
80494;SDS011;69819;48.798;11.770;2024-01-30T09:40:28;9.45;;;7.72;;
80494;SDS011;69819;48.798;11.770;2024-01-30T09:42:54;9.90;;;7.25;;
80494;SDS011;69819;48.798;11.770;2024-01-30T09:45:24;9.75;;;7.78;;
80494;SDS011;69819;48.798;11.770;2024-01-30T09:47:51;12.05;;;8.18;;
80494;SDS011;69819;48.798;11.770;2024-01-30T09:50:18;10.13;;;7.57;;
80494;SDS011;69819;48.798;11.770;2024-01-30T09:52:45;9.48;;;7.30;;
80494;SDS011;69819;48.798;11.770;2024-01-30T09:55:12;10.38;;;7.93;;
80494;SDS011;69819;48.798;11.770;2024-01-30T09:57:38;11.77;;;8.20;;
80494;SDS011;69819;48.798;11.770;2024-01-30T10:00:06;9.80;;;7.90;;
80494;SDS011;69819;48.798;11.770;2024-01-30T10:02:34;10.88;;;8.43;;
80494;SDS011;69819;48.798;11.770;2024-01-30T10:05:00;11.20;;;8.32;;
80494;SDS011;69819;48.798;11.770;2024-01-30T10:07:26;10.48;;;8.07;;
80494;SDS011;69819;48.798;11.770;2024-01-30T10:09:53;11.88;;;7.78;;
80494;SDS011;69819;48.798;11.770;2024-01-30T10:12:21;10.73;;;7.70;;
80494;SDS011;69819;48.798;11.770;2024-01-30T10:14:48;11.85;;;8.48;;
80494;SDS011;69819;48.798;11.770;2024-01-30T10:17:13;9.77;;;7.45;;
80494;SDS011;69819;48.798;11.770;2024-01-30T10:19:40;11.13;;;8.68;;
80494;SDS011;69819;48.798;11.770;2024-01-30T10:22:07;9.95;;;7.88;;
80494;SDS011;69819;48.798;11.770;2024-01-30T10:24:34;10.70;;;8.02;;
80494;SDS011;69819;48.798;11.770;2024-01-30T10:27:00;11.70;;;7.97;;
80494;SDS011;69819;48.798;11.770;2024-01-30T10:29:26;9.73;;;7.70;;
80494;SDS011;69819;48.798;11.770;2024-01-30T10:32:03;11.63;;;8.65;;
80494;SDS011;69819;48.798;11.770;2024-01-30T10:34:31;10.95;;;7.70;;
80494;SDS011;69819;48.798;11.770;2024-01-30T10:37:08;10.60;;;8.13;;
80494;SDS011;69819;48.798;11.770;2024-01-30T10:39:45;12.43;;;8.88;;
80494;SDS011;69819;48.798;11.770;2024-01-30T10:42:15;11.52;;;9.05;;
80494;SDS011;69819;48.798;11.770;2024-01-30T10:44:47;10.77;;;8.40;;
80494;SDS011;69819;48.798;11.770;2024-01-30T10:47:26;9.80;;;7.78;;
80494;SDS011;69819;48.798;11.770;2024-01-30T10:49:53;11.77;;;8.38;;
80494;SDS011;69819;48.798;11.770;2024-01-30T10:52:22;11.73;;;8.25;;
80494;SDS011;69819;48.798;11.770;2024-01-30T10:54:53;13.23;;;8.98;;
80494;SDS011;69819;48.798;11.770;2024-01-30T10:57:21;9.15;;;8.05;;
80494;SDS011;69819;48.798;11.770;2024-01-30T10:59:49;12.77;;;9.07;;
80494;SDS011;69819;48.798;11.770;2024-01-30T11:02:21;12.50;;;8.60;;
80494;SDS011;69819;48.798;11.770;2024-01-30T11:04:49;12.27;;;8.65;;
80494;SDS011;69819;48.798;11.770;2024-01-30T11:07:23;11.75;;;8.98;;
80494;SDS011;69819;48.798;11.770;2024-01-30T11:09:52;15.75;;;9.05;;
80494;SDS011;69819;48.798;11.770;2024-01-30T11:12:28;11.93;;;8.40;;
80494;SDS011;69819;48.798;11.770;2024-01-30T11:15:05;10.85;;;8.25;;
80494;SDS011;69819;48.798;11.770;2024-01-30T11:20:16;11.65;;;8.43;;
80494;SDS011;69819;48.798;11.770;2024-01-30T11:22:45;12.82;;;8.82;;
80494;SDS011;69819;48.798;11.770;2024-01-30T11:25:16;10.70;;;8.05;;
80494;SDS011;69819;48.798;11.770;2024-01-30T11:27:45;12.05;;;8.70;;
80494;SDS011;69819;48.798;11.770;2024-01-30T11:30:30;11.07;;;8.30;;
80494;SDS011;69819;48.798;11.770;2024-01-30T11:33:07;10.82;;;8.32;;
80494;SDS011;69819;48.798;11.770;2024-01-30T11:35:36;10.82;;;8.48;;
80494;SDS011;69819;48.798;11.770;2024-01-30T11:38:05;11.82;;;8.60;;
80494;SDS011;69819;48.798;11.770;2024-01-30T11:40:32;11.48;;;8.70;;
80494;SDS011;69819;48.798;11.770;2024-01-30T11:43:00;11.77;;;8.95;;
80494;SDS011;69819;48.798;11.770;2024-01-30T11:45:29;10.85;;;8.48;;
80494;SDS011;69819;48.798;11.770;2024-01-30T11:47:56;11.95;;;8.77;;
80494;SDS011;69819;48.798;11.770;2024-01-30T11:50:25;12.02;;;8.60;;
80494;SDS011;69819;48.798;11.770;2024-01-30T11:52:51;12.95;;;8.57;;
80494;SDS011;69819;48.798;11.770;2024-01-30T11:55:17;11.30;;;8.38;;
80494;SDS011;69819;48.798;11.770;2024-01-30T11:57:44;11.40;;;9.13;;
80494;SDS011;69819;48.798;11.770;2024-01-30T12:00:17;11.45;;;8.50;;
80494;SDS011;69819;48.798;11.770;2024-01-30T12:02:44;11.00;;;8.90;;
80494;SDS011;69819;48.798;11.770;2024-01-30T12:05:15;10.07;;;7.93;;
80494;SDS011;69819;48.798;11.770;2024-01-30T12:07:43;10.25;;;8.38;;
80494;SDS011;69819;48.798;11.770;2024-01-30T12:10:11;9.38;;;8.20;;
80494;SDS011;69819;48.798;11.770;2024-01-30T12:12:43;12.50;;;8.63;;
80494;SDS011;69819;48.798;11.770;2024-01-30T12:15:12;10.68;;;8.20;;
80494;SDS011;69819;48.798;11.770;2024-01-30T12:17:39;13.88;;;9.23;;
80494;SDS011;69819;48.798;11.770;2024-01-30T12:20:15;11.30;;;8.43;;
80494;SDS011;69819;48.798;11.770;2024-01-30T12:22:45;10.68;;;8.20;;
80494;SDS011;69819;48.798;11.770;2024-01-30T12:25:14;10.43;;;8.25;;
80494;SDS011;69819;48.798;11.770;2024-01-30T12:27:43;10.65;;;8.00;;
80494;SDS011;69819;48.798;11.770;2024-01-30T12:30:17;9.95;;;8.32;;
80494;SDS011;69819;48.798;11.770;2024-01-30T12:32:46;11.07;;;8.65;;
80494;SDS011;69819;48.798;11.770;2024-01-30T12:35:15;11.77;;;8.57;;
80494;SDS011;69819;48.798;11.770;2024-01-30T12:37:46;10.68;;;8.65;;
80494;SDS011;69819;48.798;11.770;2024-01-30T12:40:14;12.05;;;9.35;;
80494;SDS011;69819;48.798;11.770;2024-01-30T12:42:40;10.95;;;8.55;;
80494;SDS011;69819;48.798;11.770;2024-01-30T12:45:07;12.18;;;8.70;;
80494;SDS011;69819;48.798;11.770;2024-01-30T12:47:34;12.02;;;8.98;;
80494;SDS011;69819;48.798;11.770;2024-01-30T12:50:00;10.75;;;8.80;;
80494;SDS011;69819;48.798;11.770;2024-01-30T12:52:26;10.88;;;8.50;;
80494;SDS011;69819;48.798;11.770;2024-01-30T12:54:52;11.73;;;8.63;;
80494;SDS011;69819;48.798;11.770;2024-01-30T12:57:18;11.77;;;8.90;;
80494;SDS011;69819;48.798;11.770;2024-01-30T12:59:44;11.23;;;8.63;;
80494;SDS011;69819;48.798;11.770;2024-01-30T13:02:14;11.60;;;8.60;;
80494;SDS011;69819;48.798;11.770;2024-01-30T13:04:40;13.57;;;8.85;;
80494;SDS011;69819;48.798;11.770;2024-01-30T13:07:08;13.05;;;9.35;;
80494;SDS011;69819;48.798;11.770;2024-01-30T13:09:33;10.20;;;8.32;;
80494;SDS011;69819;48.798;11.770;2024-01-30T13:11:59;11.68;;;8.88;;
80494;SDS011;69819;48.798;11.770;2024-01-30T13:14:25;12.70;;;8.80;;
80494;SDS011;69819;48.798;11.770;2024-01-30T13:16:51;11.77;;;8.82;;
80494;SDS011;69819;48.798;11.770;2024-01-30T13:19:17;11.35;;;8.73;;
80494;SDS011;69819;48.798;11.770;2024-01-30T13:21:43;10.60;;;8.85;;
80494;SDS011;69819;48.798;11.770;2024-01-30T13:24:09;10.13;;;8.38;;
80494;SDS011;69819;48.798;11.770;2024-01-30T13:26:35;12.95;;;8.90;;
80494;SDS011;69819;48.798;11.770;2024-01-30T13:29:01;11.15;;;8.65;;
80494;SDS011;69819;48.798;11.770;2024-01-30T13:31:28;12.98;;;8.75;;
80494;SDS011;69819;48.798;11.770;2024-01-30T13:33:54;12.15;;;8.70;;
80494;SDS011;69819;48.798;11.770;2024-01-30T13:36:20;12.50;;;8.85;;
80494;SDS011;69819;48.798;11.770;2024-01-30T13:38:47;11.75;;;8.95;;
80494;SDS011;69819;48.798;11.770;2024-01-30T13:41:13;12.95;;;9.57;;
80494;SDS011;69819;48.798;11.770;2024-01-30T13:43:39;11.95;;;9.05;;
80494;SDS011;69819;48.798;11.770;2024-01-30T13:46:05;11.07;;;9.07;;
80494;SDS011;69819;48.798;11.770;2024-01-30T13:48:31;12.02;;;9.10;;
80494;SDS011;69819;48.798;11.770;2024-01-30T13:50:57;13.60;;;8.90;;
80494;SDS011;69819;48.798;11.770;2024-01-30T13:53:23;9.90;;;8.45;;
80494;SDS011;69819;48.798;11.770;2024-01-30T13:55:48;11.13;;;8.40;;
80494;SDS011;69819;48.798;11.770;2024-01-30T13:58:14;11.55;;;8.57;;
80494;SDS011;69819;48.798;11.770;2024-01-30T14:00:40;13.50;;;9.60;;
80494;SDS011;69819;48.798;11.770;2024-01-30T14:03:06;12.77;;;9.50;;
80494;SDS011;69819;48.798;11.770;2024-01-30T14:05:32;13.55;;;9.82;;
80494;SDS011;69819;48.798;11.770;2024-01-30T14:07:58;11.80;;;8.98;;
80494;SDS011;69819;48.798;11.770;2024-01-30T14:10:25;14.40;;;9.32;;
80494;SDS011;69819;48.798;11.770;2024-01-30T14:12:51;12.50;;;9.00;;
80494;SDS011;69819;48.798;11.770;2024-01-30T14:15:17;12.02;;;9.18;;
80494;SDS011;69819;48.798;11.770;2024-01-30T14:17:43;10.60;;;8.77;;
80494;SDS011;69819;48.798;11.770;2024-01-30T14:20:10;13.10;;;9.18;;
80494;SDS011;69819;48.798;11.770;2024-01-30T14:22:36;12.05;;;8.57;;
80494;SDS011;69819;48.798;11.770;2024-01-30T14:25:02;12.50;;;9.43;;
80494;SDS011;69819;48.798;11.770;2024-01-30T14:27:30;11.52;;;9.18;;
80494;SDS011;69819;48.798;11.770;2024-01-30T14:29:57;10.07;;;8.35;;